Time;durP1;ratioP1;P1;durP2;ratioP2;P2;SDS_P1;SDS_P2;PMS_P1;PMS_P2;Temp;Humidity;BMP_temperature;BMP_pressure;BME280_temperature;BME280_humidity;BME280_pressure;Samples;Min_cycle;Max_cycle;Signal;HPM_P1;HPM_P2
2022/08/07 00:02:33;;;;;;;0.20;0.00;;;27.60;99.90;;;;;;26169729;22;20206;-72
2022/08/07 00:12:46;;;;;;;0.20;0.00;;;27.30;99.90;;;;;;26168133;22;20206;-72
2022/08/07 00:23:06;;;;;;;0.20;0.00;;;27.20;99.90;;;;;;26169231;22;20179;-72
2022/08/07 00:33:10;;;;;;;0.20;0.10;;;27.20;99.90;;;;;;26168355;22;20262;-72
2022/08/07 00:43:16;;;;;;;0.20;0.10;;;27.20;99.90;;;;;;26171341;22;20186;-71
2022/08/07 00:53:40;;;;;;;0.20;0.00;;;27.10;99.90;;;;;;26177127;22;20164;-72
2022/08/07 01:03:58;;;;;;;0.20;0.00;;;26.80;99.90;;;;;;26177759;22;20199;-71
2022/08/07 01:14:03;;;;;;;0.20;0.00;;;26.90;99.90;;;;;;26177269;22;20156;-71
2022/08/07 01:24:09;;;;;;;0.20;0.00;;;26.80;99.90;;;;;;26177904;22;20207;-72
2022/08/07 01:34:13;;;;;;;0.20;0.00;;;26.70;99.90;;;;;;26175796;22;20167;-71
2022/08/07 01:44:19;;;;;;;0.20;0.00;;;26.60;99.90;;;;;;26175234;22;20198;-72
2022/08/07 01:54:28;;;;;;;0.20;0.00;;;26.70;99.90;;;;;;26174905;22;20160;-73
2022/08/07 02:04:46;;;;;;;0.20;0.00;;;26.70;99.90;;;;;;26173194;22;20667;-72
2022/08/07 02:15:00;;;;;;;0.20;0.00;;;26.80;99.90;;;;;;26173884;22;20159;-72
2022/08/07 02:25:13;;;;;;;0.20;0.00;;;26.50;99.90;;;;;;26174366;22;20201;-72
2022/08/07 02:35:21;;;;;;;0.20;0.00;;;26.70;99.90;;;;;;26172145;22;20163;-72
2022/08/07 02:45:47;;;;;;;0.20;0.10;;;26.40;99.90;;;;;;26172051;22;20179;-72
2022/08/07 02:56:06;;;;;;;0.20;0.00;;;26.40;99.90;;;;;;26171798;22;20223;-72
2022/08/07 03:06:26;;;;;;;0.20;0.00;;;26.00;99.90;;;;;;26170216;22;20199;-71
2022/08/07 03:16:37;;;;;;;0.20;0.00;;;26.00;99.90;;;;;;26173191;22;20163;-71
2022/08/07 03:26:49;;;;;;;0.20;0.00;;;25.70;99.90;;;;;;26171482;22;20199;-70
2022/08/07 03:37:03;;;;;;;0.20;0.00;;;26.00;99.90;;;;;;26170553;22;20155;-72
2022/08/07 03:47:17;;;;;;;0.20;0.00;;;26.10;99.90;;;;;;26171576;22;20269;-72
2022/08/07 03:57:22;;;;;;;0.20;0.00;;;26.00;99.90;;;;;;26171834;22;20167;-72
2022/08/07 04:07:47;;;;;;;0.20;0.00;;;25.90;99.90;;;;;;26168463;22;20196;-73
2022/08/07 04:17:52;;;;;;;0.20;0.00;;;25.60;99.90;;;;;;26169642;22;20170;-72
2022/08/07 04:28:18;;;;;;;0.20;0.08;;;25.60;99.90;;;;;;26169380;22;20175;-72
2022/08/07 04:38:26;;;;;;;0.20;0.00;;;25.40;99.90;;;;;;26166988;22;20175;-73
2022/08/07 04:48:39;;;;;;;0.20;0.00;;;25.00;99.90;;;;;;26170787;22;20171;-71
2022/08/07 04:58:52;;;;;;;0.20;0.00;;;24.80;99.90;;;;;;26170400;22;20183;-70
2022/08/07 05:09:24;;;;;;;0.20;0.00;;;24.50;99.90;;;;;;26168226;22;20241;-71
2022/08/07 05:19:51;;;;;;;0.20;0.00;;;24.50;99.90;;;;;;26166317;22;20189;-71
2022/08/07 05:29:57;;;;;;;0.20;0.10;;;24.50;99.90;;;;;;26170311;22;20184;-71
2022/08/07 05:40:02;;;;;;;0.20;0.00;;;24.50;99.90;;;;;;26177257;22;20187;-71
2022/08/07 05:50:23;;;;;;;0.20;0.00;;;25.00;99.90;;;;;;26175749;22;20174;-70
2022/08/07 06:00:33;;;;;;;0.20;0.00;;;25.40;99.90;;;;;;26174817;22;20191;-71
2022/08/07 06:10:39;;;;;;;0.20;0.00;;;26.00;99.90;;;;;;26175105;22;20199;-72
2022/08/07 06:20:45;;;;;;;0.20;0.00;;;26.50;99.90;;;;;;26175394;22;20198;-73
2022/08/07 06:31:10;;;;;;;0.20;0.00;;;27.20;99.90;;;;;;26173128;22;20361;-72
2022/08/07 06:41:21;;;;;;;0.20;0.00;;;27.90;99.90;;;;;;26172297;22;20191;-72
2022/08/07 06:51:47;;;;;;;0.20;0.00;;;28.20;99.90;;;;;;26171342;22;20168;-72
2022/08/07 07:01:55;;;;;;;0.20;0.00;;;28.60;99.90;;;;;;26171270;22;20199;-72
2022/08/07 07:12:22;;;;;;;0.20;0.00;;;28.70;99.90;;;;;;26171491;22;20247;-72
2022/08/07 07:22:34;;;;;;;0.20;0.00;;;28.90;99.90;;;;;;26170132;22;20191;-70
2022/08/07 07:33:02;;;;;;;0.20;0.00;;;29.10;99.90;;;;;;26167270;22;20171;-70
2022/08/07 07:43:08;;;;;;;0.20;0.00;;;29.30;99.90;;;;;;26167510;22;20187;-72
2022/08/07 07:53:24;;;;;;;0.20;0.00;;;29.50;99.90;;;;;;26165902;22;20174;-71
2022/08/07 08:03:30;;;;;;;0.20;0.00;;;29.30;99.90;;;;;;26168493;22;20199;-72
2022/08/07 08:13:55;;;;;;;0.20;0.05;;;29.30;99.90;;;;;;26166966;22;20279;-71
2022/08/07 08:34:43;;;;;;;0.20;0.00;;;29.50;99.90;;;;;;26166822;22;20171;-70
2022/08/07 08:44:53;;;;;;;0.20;0.10;;;29.40;99.90;;;;;;26167200;22;20199;-70
2022/08/07 08:55:04;;;;;;;0.20;0.00;;;29.70;99.90;;;;;;26164605;22;20171;-69
2022/08/07 09:05:22;;;;;;;0.20;0.00;;;29.80;99.90;;;;;;26165016;22;20206;-70
2022/08/07 09:15:51;;;;;;;0.20;0.00;;;29.70;99.90;;;;;;26169570;22;20175;-70
2022/08/07 09:26:21;;;;;;;0.20;0.10;;;29.80;99.90;;;;;;26169591;22;20198;-70
2022/08/07 09:36:34;;;;;;;0.20;0.00;;;30.00;99.90;;;;;;26173882;22;20249;-72
2022/08/07 09:47:00;;;;;;;0.20;0.00;;;30.40;99.90;;;;;;26168041;22;20207;-67
2022/08/07 09:58:05;;;;;;;0.20;0.00;;;30.40;99.90;;;;;;26168770;22;20167;-70
2022/08/07 10:08:26;;;;;;;0.20;0.00;;;30.40;99.90;;;;;;26000907;22;20302;-70
2022/08/07 10:18:45;;;;;;;0.20;0.00;;;30.70;99.90;;;;;;26168179;22;20168;-71
2022/08/07 10:29:07;;;;;;;0.20;0.00;;;31.10;99.90;;;;;;26170871;22;20282;-72
2022/08/07 10:39:25;;;;;;;0.20;0.00;;;31.30;99.90;;;;;;26168384;22;20176;-71
2022/08/07 10:49:50;;;;;;;0.20;0.00;;;31.60;99.90;;;;;;26170544;22;20181;-70
2022/08/07 11:00:06;;;;;;;0.20;0.00;;;31.90;99.90;;;;;;26169338;22;20202;-72
2022/08/07 11:10:19;;;;;;;0.20;0.00;;;32.20;99.90;;;;;;26169481;22;20211;-70
2022/08/07 11:20:43;;;;;;;0.20;0.00;;;32.70;99.90;;;;;;26167968;22;20183;-70
2022/08/07 11:30:57;;;;;;;0.20;0.00;;;33.30;99.90;;;;;;26165215;22;20163;-69
2022/08/07 11:41:12;;;;;;;0.20;0.00;;;34.10;99.90;;;;;;26159911;22;20189;-70
2022/08/07 11:51:47;;;;;;;0.20;0.20;;;34.30;99.90;;;;;;26154918;22;20171;-70
2022/08/07 12:02:00;;;;;;;0.20;0.00;;;34.20;99.90;;;;;;26167929;22;20199;-68
2022/08/07 12:12:08;;;;;;;0.20;0.00;;;34.40;99.90;;;;;;26167231;22;20195;-72
2022/08/07 12:22:22;;;;;;;0.20;0.00;;;34.90;99.90;;;;;;26166292;22;20243;-69
2022/08/07 12:32:52;;;;;;;0.20;0.00;;;35.30;99.90;;;;;;26167577;22;20167;-70
2022/08/07 12:43:01;;;;;;;0.20;0.00;;;35.90;99.90;;;;;;26169277;22;20202;-71
2022/08/07 12:53:31;;;;;;;0.20;0.00;;;36.10;99.90;;;;;;26174658;22;20174;-71
2022/08/07 13:04:28;;;;;;;0.20;0.00;;;36.20;99.90;;;;;;26173193;22;20203;-71
2022/08/07 13:14:46;;;;;;;0.20;0.00;;;36.60;99.90;;;;;;26174759;22;20167;-72
2022/08/07 13:25:00;;;;;;;0.20;0.00;;;36.40;99.90;;;;;;26176869;22;20226;-71
2022/08/07 13:35:08;;;;;;;0.20;0.00;;;36.30;99.90;;;;;;26174218;22;20163;-72
2022/08/07 13:45:14;;;;;;;0.20;0.00;;;36.20;99.90;;;;;;26170994;22;20191;-72
2022/08/07 13:55:43;;;;;;;0.20;0.00;;;36.30;99.90;;;;;;26167552;22;20152;-71
2022/08/07 14:06:00;;;;;;;0.20;0.00;;;36.60;99.90;;;;;;26169247;22;20199;-73
2022/08/07 14:16:08;;;;;;;0.20;0.00;;;37.60;99.90;;;;;;26169059;22;20159;-70
2022/08/07 14:26:24;;;;;;;0.20;0.00;;;37.40;99.90;;;;;;26167888;22;20190;-71
2022/08/07 14:36:34;;;;;;;0.20;0.00;;;37.90;99.90;;;;;;26170181;22;20192;-70
2022/08/07 14:46:43;;;;;;;0.20;0.00;;;37.90;99.90;;;;;;26167215;22;20184;-71
2022/08/07 14:57:03;;;;;;;0.20;0.00;;;37.30;99.90;;;;;;26165915;22;20187;-72
2022/08/07 15:07:11;;;;;;;0.20;0.00;;;37.80;99.90;;;;;;26168341;22;20278;-71
2022/08/07 15:17:40;;;;;;;0.20;0.00;;;37.20;99.90;;;;;;26164759;22;20163;-69
2022/08/07 15:28:07;;;;;;;0.20;0.00;;;37.40;99.90;;;;;;26163628;22;20191;-69
2022/08/07 15:38:33;;;;;;;0.20;0.00;;;33.10;99.90;;;;;;26161127;22;20197;-69
2022/08/07 15:49:00;;;;;;;0.20;0.00;;;32.30;99.90;;;;;;26159649;22;20199;-70
2022/08/07 15:59:19;;;;;;;0.20;0.00;;;31.80;99.90;;;;;;26157985;22;20171;-70
2022/08/07 16:09:51;;;;;;;0.20;0.00;;;31.40;99.90;;;;;;26160552;22;20218;-67
2022/08/07 16:20:28;;;;;;;0.20;0.00;;;31.20;99.90;;;;;;26162428;22;20160;-73
2022/08/07 16:30:49;;;;;;;0.20;0.00;;;30.80;99.90;;;;;;26156606;22;20155;-70
2022/08/07 16:41:31;;;;;;;0.20;0.00;;;30.80;99.90;;;;;;26162164;22;21099;-70
2022/08/07 16:51:52;;;;;;;0.20;0.00;;;30.60;99.90;;;;;;26164565;22;20227;-70
2022/08/07 17:02:45;;;;;;;0.20;0.00;;;30.60;99.90;;;;;;26158272;22;20203;-71
2022/08/07 17:13:04;;;;;;;0.20;0.00;;;30.60;99.90;;;;;;26160998;22;20195;-73
2022/08/07 17:23:40;;;;;;;0.20;0.00;;;30.30;99.90;;;;;;26166451;22;20175;-72
2022/08/07 17:33:49;;;;;;;0.20;0.00;;;30.20;99.90;;;;;;26171923;22;20171;-71
2022/08/07 17:44:19;;;;;;;0.20;0.10;;;29.30;99.90;;;;;;26170415;22;20194;-69
2022/08/07 17:54:49;;;;;;;0.20;0.00;;;29.10;99.90;;;;;;26170750;22;20185;-70
2022/08/07 18:05:04;;;;;;;0.20;0.10;;;28.70;99.90;;;;;;26169432;22;20199;-72
2022/08/07 18:15:29;;;;;;;0.20;0.10;;;28.70;99.90;;;;;;26146027;22;20198;-71
2022/08/07 18:25:38;;;;;;;0.20;0.00;;;27.80;99.90;;;;;;26168872;22;20206;-70
2022/08/07 18:35:56;;;;;;;0.20;0.00;;;26.80;99.90;;;;;;26169316;22;21037;-71
2022/08/07 18:46:04;;;;;;;0.20;0.00;;;26.40;99.90;;;;;;26166234;22;20195;-72
2022/08/07 18:56:35;;;;;;;0.20;0.10;;;26.60;99.90;;;;;;26158599;22;20167;-70
2022/08/07 19:06:49;;;;;;;0.20;0.00;;;27.00;99.90;;;;;;26164579;22;20198;-71
2022/08/07 19:17:00;;;;;;;0.20;0.00;;;27.20;99.90;;;;;;26164629;22;20167;-71
2022/08/07 19:27:17;;;;;;;0.20;0.00;;;27.30;99.90;;;;;;26161776;22;20187;-69
2022/08/07 19:37:46;;;;;;;0.20;0.00;;;27.50;99.90;;;;;;26158507;22;20168;-72
2022/08/07 19:48:00;;;;;;;0.20;0.00;;;27.40;99.90;;;;;;26164098;22;20193;-71
2022/08/07 19:58:10;;;;;;;0.20;0.00;;;27.20;99.90;;;;;;26165541;22;20168;-71
2022/08/07 20:08:22;;;;;;;0.20;0.10;;;27.20;99.90;;;;;;26164464;22;20228;-70
2022/08/07 20:18:31;;;;;;;0.20;0.10;;;27.10;99.90;;;;;;26163760;22;20201;-71
2022/08/07 20:28:39;;;;;;;0.20;0.10;;;27.10;99.90;;;;;;26163670;22;20186;-71
2022/08/07 20:38:53;;;;;;;0.20;0.00;;;27.20;99.90;;;;;;26163958;22;20739;-70
2022/08/07 20:49:23;;;;;;;0.20;0.00;;;27.20;99.90;;;;;;26161344;22;20203;-70
2022/08/07 20:59:50;;;;;;;0.20;0.00;;;27.10;99.90;;;;;;26162676;22;20193;-69
2022/08/07 21:10:14;;;;;;;0.20;0.10;;;27.20;99.90;;;;;;26176151;22;20282;-70
2022/08/07 21:20:29;;;;;;;0.20;0.00;;;27.00;99.90;;;;;;26166318;22;20160;-71
2022/08/07 21:30:56;;;;;;;0.20;0.00;;;26.90;99.90;;;;;;26168478;22;20329;-71
2022/08/07 21:41:06;;;;;;;0.20;0.00;;;26.90;99.90;;;;;;26170535;22;20167;-70
2022/08/07 21:51:18;;;;;;;0.20;0.00;;;26.80;99.90;;;;;;26174600;22;20325;-72
2022/08/07 22:01:37;;;;;;;0.20;0.00;;;26.40;99.90;;;;;;26176016;22;20170;-71
2022/08/07 22:12:05;;;;;;;0.20;0.00;;;25.70;99.90;;;;;;26172388;22;20195;-71
2022/08/07 22:22:18;;;;;;;0.20;0.00;;;25.70;99.90;;;;;;26170216;22;20206;-71
2022/08/07 22:32:38;;;;;;;0.20;0.00;;;25.60;99.90;;;;;;26170998;22;20163;-71
2022/08/07 22:42:50;;;;;;;0.20;0.00;;;25.60;99.90;;;;;;26169878;22;20310;-70
2022/08/07 22:53:18;;;;;;;0.20;0.10;;;25.50;99.90;;;;;;26172096;22;20168;-71
2022/08/07 23:04:03;;;;;;;0.20;0.00;;;25.20;99.90;;;;;;26168795;22;20211;-70
2022/08/07 23:14:28;;;;;;;0.20;0.00;;;25.40;99.90;;;;;;26171117;22;20187;-70
2022/08/07 23:24:44;;;;;;;0.20;0.00;;;25.30;99.90;;;;;;26169203;22;20192;-70
2022/08/07 23:35:10;;;;;;;0.20;0.00;;;25.20;99.90;;;;;;26170262;22;20163;-71
2022/08/07 23:45:30;;;;;;;0.20;0.10;;;24.90;99.90;;;;;;26169332;22;20195;-70
2022/08/07 23:56:02;;;;;;;0.20;0.00;;;24.80;99.90;;;;;;26167005;22;20178;-70
